Time;durP1;ratioP1;P1;durP2;ratioP2;P2;SDS_P1;SDS_P2;PMS_P1;PMS_P2;Temp;Humidity;BMP_temperature;BMP_pressure;BME280_temperature;BME280_humidity;BME280_pressure;Samples;Min_cycle;Max_cycle;Signal;HPM_P1;HPM_P2
2022/05/03 04:25:14;;;;;;;;;;;;;;;12.01;100.00;98160.78;5337754;23;19976;-74
2022/05/03 04:27:41;;;;;;;;;;;;;;;12.07;100.00;98159.97;4883461;29;19949;-74
2022/05/03 04:30:09;;;;;;;;;;;;;;;12.19;100.00;98155.88;4900565;29;19958;-73
2022/05/03 04:32:36;;;;;;;;;;;;;;;12.31;100.00;98158.97;4901650;29;19958;-73
2022/05/03 04:35:03;;;;;;;;;;;;;;;12.39;100.00;98152.13;4901232;29;19958;-74
2022/05/03 04:37:31;;;;;;;;;;;;;;;12.38;100.00;98163.72;4901451;29;19976;-73
2022/05/03 04:39:58;;;;;;;;;;;;;;;12.34;100.00;98158.16;4901200;29;20371;-73
2022/05/03 04:42:25;;;;;;;;;;;;;;;12.27;100.00;98160.22;4884887;29;19957;-73
2022/05/03 04:44:52;;;;;;;;;;;;;;;12.26;100.00;98162.22;4901807;29;20529;-73
2022/05/03 04:47:20;;;;;;;;;;;;;;;12.21;100.00;98157.06;4901645;29;19949;-73
2022/05/03 04:49:48;;;;;;;;;;;;;;;12.26;100.00;98162.22;4901147;29;19961;-73
2022/05/03 04:52:15;;;;;;;;;;;;;;;12.29;100.00;98172.63;4901294;29;19949;-74
2022/05/03 04:54:42;;;;;;;;;;;;;;;12.32;100.00;98171.00;4901516;29;19978;-73
2022/05/03 04:57:10;;;;;;;;;;;;;;;12.44;100.00;98164.88;4901098;29;19948;-74
2022/05/03 04:59:38;;;;;;;;;;;;;;;12.96;100.00;98166.38;4901171;29;20256;-74
2022/05/03 05:02:05;;;;;;;;;;;;;;;13.44;100.00;98173.91;4901330;29;20242;-73
2022/05/03 05:04:32;;;;;;;;;;;;;;;13.98;100.00;98177.59;4898667;29;19949;-74
2022/05/03 05:06:59;;;;;;;;;;;;;;;14.48;100.00;98177.69;4896383;29;19976;-74
2022/05/03 05:09:27;;;;;;;;;;;;;;;14.96;100.00;98178.06;4882028;29;19948;-74
2022/05/03 05:11:54;;;;;;;;;;;;;;;15.57;100.00;98170.03;4882530;29;19960;-74
2022/05/03 05:14:21;;;;;;;;;;;;;;;16.29;100.00;98185.75;4882855;29;19952;-73
2022/05/03 05:16:49;;;;;;;;;;;;;;;16.96;100.00;98188.97;4881982;29;19962;-72
2022/05/03 05:19:16;;;;;;;;;;;;;;;17.40;100.00;98181.72;4880539;29;19986;-72
2022/05/03 05:21:43;;;;;;;;;;;;;;;17.86;99.65;98183.25;4881616;29;19948;-72
2022/05/03 05:24:11;;;;;;;;;;;;;;;18.28;96.00;98190.44;4880740;29;19991;-72
2022/05/03 05:26:39;;;;;;;;;;;;;;;18.60;91.95;98181.75;4881191;29;20268;-72
2022/05/03 05:29:07;;;;;;;;;;;;;;;19.06;92.47;98193.59;4882230;29;19954;-72
2022/05/03 05:31:34;;;;;;;;;;;;;;;19.66;85.48;98189.41;4882650;29;19951;-72
2022/05/03 05:34:02;;;;;;;;;;;;;;;20.18;82.00;98197.97;4882132;29;19972;-73
2022/05/03 05:36:29;;;;;;;;;;;;;;;20.22;77.58;98195.81;4882070;29;20346;-72
2022/05/03 05:38:56;;;;;;;;;;;;;;;20.53;75.04;98206.38;4881179;29;19971;-72
2022/05/03 05:41:24;;;;;;;;;;;;;;;21.50;70.02;98202.69;4879503;29;19966;-73
2022/05/03 05:43:51;;;;;;;;;;;;;;;21.48;69.45;98208.88;4874881;29;19953;-73
2022/05/03 05:46:18;;;;;;;;;;;;;;;21.11;69.65;98212.91;4876890;29;19949;-72
2022/05/03 05:48:45;;;;;;;;;;;;;;;21.09;73.42;98206.91;4880676;29;19955;-72
2022/05/03 05:51:14;;;;;;;;;;;;;;;20.05;75.99;98213.50;4881452;29;19949;-72
2022/05/03 05:53:43;;;;;;;;;;;;;;;19.77;78.77;98209.69;4879868;29;19979;-72
2022/05/03 05:56:11;;;;;;;;;;;;;;;19.47;79.96;98214.00;4871154;29;20366;-72
2022/05/03 05:58:40;;;;;;;;;;;;;;;19.19;81.92;98214.19;4875668;29;19975;-72
2022/05/03 06:01:07;;;;;;;;;;;;;;;19.06;83.16;98205.72;4881409;29;20357;-72
2022/05/03 06:03:34;;;;;;;;;;;;;;;18.94;84.96;98207.34;4881539;29;19954;-74
2022/05/03 06:06:02;;;;;;;;;;;;;;;18.67;87.89;98211.88;4881428;29;19951;-73
2022/05/03 06:08:29;;;;;;;;;;;;;;;18.50;87.58;98208.38;4876811;29;19957;-74
2022/05/03 06:10:58;;;;;;;;;;;;;;;18.52;89.74;98213.59;4877896;29;19951;-74
2022/05/03 06:13:25;;;;;;;;;;;;;;;18.66;89.15;98211.09;4881114;29;19958;-73
2022/05/03 06:15:54;;;;;;;;;;;;;;;18.64;88.92;98222.09;4881224;29;19966;-74
2022/05/03 06:18:22;;;;;;;;;;;;;;;18.59;90.51;98221.84;4881111;29;20269;-74
2022/05/03 06:20:50;;;;;;;;;;;;;;;18.39;89.89;98220.00;4878873;29;19956;-74
2022/05/03 06:23:17;;;;;;;;;;;;;;;18.54;91.81;98219.59;4879860;29;19958;-74
2022/05/03 06:25:45;;;;;;;;;;;;;;;18.54;94.65;98217.56;4880680;29;19973;-74
2022/05/03 06:28:12;;;;;;;;;;;;;;;18.43;93.84;98222.75;4881326;29;20390;-74
2022/05/03 06:30:40;;;;;;;;;;;;;;;18.17;94.26;98218.28;4880803;29;19957;-74
2022/05/03 06:33:08;;;;;;;;;;;;;;;18.05;95.89;98217.03;4881091;29;20336;-74
2022/05/03 06:35:35;;;;;;;;;;;;;;;17.88;98.23;98217.53;4880623;29;20377;-74
2022/05/03 06:38:02;;;;;;;;;;;;;;;17.80;100.00;98221.84;4881528;29;19953;-74
2022/05/03 06:40:29;;;;;;;;;;;;;;;17.80;100.00;98222.63;4881876;29;19968;-74
2022/05/03 06:42:57;;;;;;;;;;;;;;;17.92;100.00;98223.91;4881905;29;19958;-74
2022/05/03 06:45:24;;;;;;;;;;;;;;;18.04;100.00;98223.13;4899667;29;19954;-74
2022/05/03 06:47:51;;;;;;;;;;;;;;;18.17;100.00;98221.09;4900043;29;19950;-74
2022/05/03 06:50:19;;;;;;;;;;;;;;;18.14;98.54;98233.34;4891310;29;19961;-73
2022/05/03 06:52:47;;;;;;;;;;;;;;;18.20;99.44;98223.84;4884427;29;20246;-74
2022/05/03 06:55:15;;;;;;;;;;;;;;;18.17;95.53;98241.72;4884920;29;19950;-74
2022/05/03 06:57:43;;;;;;;;;;;;;;;18.19;98.46;98244.13;4884463;29;19948;-74
2022/05/03 07:00:12;;;;;;;;;;;;;;;18.27;100.00;98237.78;4884827;29;19996;-73
2022/05/03 07:02:39;;;;;;;;;;;;;;;18.42;100.00;98232.47;4884481;29;19961;-74
2022/05/03 07:05:06;;;;;;;;;;;;;;;18.52;96.25;98245.53;4884582;29;20361;-74
2022/05/03 07:07:34;;;;;;;;;;;;;;;18.56;95.39;98243.38;4884815;29;19952;-74
2022/05/03 07:10:02;;;;;;;;;;;;;;;18.58;95.99;98243.75;4883387;29;19976;-74
2022/05/03 07:12:30;;;;;;;;;;;;;;;18.67;97.45;98248.72;4873723;29;20130;-74
2022/05/03 07:14:58;;;;;;;;;;;;;;;18.83;97.91;98248.56;4883600;29;19958;-75
2022/05/03 07:22:58;;;;;;;;;;;;;;;19.03;95.16;98244.25;4883825;29;20442;-76
2022/05/03 07:25:26;;;;;;;;;;;;;;;19.07;96.28;98247.00;4882320;29;19977;-76
2022/05/03 07:27:53;;;;;;;;;;;;;;;19.08;96.93;98251.41;4883490;29;20220;-76
2022/05/03 07:30:21;;;;;;;;;;;;;;;19.14;96.64;98245.94;4883005;29;19955;-76
2022/05/03 07:32:48;;;;;;;;;;;;;;;19.27;95.69;98246.72;4883188;29;19960;-76
2022/05/03 07:35:15;;;;;;;;;;;;;;;19.36;96.00;98247.63;4883255;29;19948;-76
2022/05/03 07:37:43;;;;;;;;;;;;;;;19.49;96.62;98251.22;4882998;29;20361;-76
2022/05/03 07:40:11;;;;;;;;;;;;;;;19.48;97.34;98257.34;4883558;29;19976;-76
2022/05/03 07:42:39;;;;;;;;;;;;;;;19.55;97.74;98249.38;4880995;29;19952;-76
2022/05/03 07:45:07;;;;;;;;;;;;;;;19.58;98.04;98256.19;4872041;29;19951;-76
2022/05/03 07:47:35;;;;;;;;;;;;;;;19.69;97.38;98256.59;4867899;29;20026;-76
2022/05/03 07:50:03;;;;;;;;;;;;;;;19.70;96.35;98258.19;4864765;29;19960;-76
2022/05/03 07:52:31;;;;;;;;;;;;;;;19.73;96.46;98253.63;4864674;29;20239;-76
2022/05/03 07:54:58;;;;;;;;;;;;;;;19.78;96.34;98262.34;4864398;29;19968;-76
2022/05/03 07:57:26;;;;;;;;;;;;;;;19.81;94.93;98260.63;4865224;29;19949;-76
2022/05/03 07:59:55;;;;;;;;;;;;;;;19.85;95.64;98269.81;4882309;29;19969;-76
2022/05/03 08:02:22;;;;;;;;;;;;;;;19.93;97.53;98263.41;4875508;29;20365;-76
2022/05/03 08:04:53;;;;;;;;;;;;;;;19.96;94.82;98267.38;4867319;29;19950;-76
2022/05/03 08:07:21;;;;;;;;;;;;;;;19.94;95.19;98267.84;4882396;29;20388;-76
2022/05/03 08:09:48;;;;;;;;;;;;;;;19.78;93.43;98276.53;4882903;29;19952;-76
2022/05/03 08:12:16;;;;;;;;;;;;;;;19.72;96.12;98269.84;4882507;29;19952;-76
2022/05/03 08:14:43;;;;;;;;;;;;;;;19.89;95.03;98274.09;4878326;29;19950;-76
2022/05/03 08:17:10;;;;;;;;;;;;;;;20.03;95.50;98267.91;4877880;29;19957;-76
2022/05/03 08:19:38;;;;;;;;;;;;;;;20.06;94.01;98264.13;4872679;29;19971;-76
2022/05/03 08:22:05;;;;;;;;;;;;;;;19.89;95.12;98268.41;4870442;29;19954;-76
2022/05/03 08:24:32;;;;;;;;;;;;;;;20.03;93.99;98265.06;4886276;29;19978;-77
2022/05/03 08:27:01;;;;;;;;;;;;;;;19.93;99.17;98274.75;4886513;29;19953;-76
2022/05/03 08:29:31;;;;;;;;;;;;;;;19.79;93.84;98271.63;4873063;29;19953;-77
2022/05/03 08:31:59;;;;;;;;;;;;;;;19.95;93.83;98279.97;4870051;29;19961;-77
2022/05/03 08:34:27;;;;;;;;;;;;;;;19.89;89.90;98274.09;4876813;29;19957;-75
2022/05/03 08:42:28;;;;;;;;;;;;;;;19.62;98.71;98277.50;4867388;29;19949;-76
2022/05/03 08:44:56;;;;;;;;;;;;;;;19.71;94.67;98281.69;4868637;29;20374;-75
2022/05/03 08:47:24;;;;;;;;;;;;;;;19.65;94.72;98284.31;4868675;29;19962;-75
2022/05/03 08:49:57;;;;;;;;;;;;;;;19.66;95.15;98289.50;4871455;29;19953;-74
2022/05/03 08:52:27;;;;;;;;;;;;;;;19.32;93.94;98292.28;4875428;29;19956;-75
2022/05/03 08:54:55;;;;;;;;;;;;;;;19.34;100.00;98289.00;4868444;29;20221;-75
2022/05/03 08:57:26;;;;;;;;;;;;;;;19.60;97.66;98294.19;4871825;29;19949;-76
2022/05/03 08:59:54;;;;;;;;;;;;;;;19.21;97.16;98288.22;4869579;29;19967;-76
2022/05/03 09:02:21;;;;;;;;;;;;;;;19.50;100.00;98286.03;4866111;29;19957;-76
2022/05/03 09:04:48;;;;;;;;;;;;;;;19.65;100.00;98287.13;4870356;29;19953;-76
2022/05/03 09:07:23;;;;;;;;;;;;;;;19.82;100.00;98290.59;4869364;29;20344;-75
2022/05/03 09:09:51;;;;;;;;;;;;;;;19.84;100.00;98294.56;4864593;29;19978;-77
2022/05/03 09:12:30;;;;;;;;;;;;;;;19.98;96.61;98291.19;4870547;29;20520;-79
2022/05/03 09:14:59;;;;;;;;;;;;;;;19.99;99.93;98289.94;4863050;29;19966;-75
2022/05/03 09:17:43;;;;;;;;;;;;;;;20.04;97.74;98289.38;4872060;29;19955;-73
2022/05/03 09:25:49;;;;;;;;;;;;;;;20.01;95.81;98284.59;4877672;29;19984;-74
2022/05/03 09:28:19;;;;;;;;;;;;;;;20.12;95.41;98282.19;4877853;29;20350;-74
2022/05/03 09:30:47;;;;;;;;;;;;;;;20.05;94.94;98279.56;4873892;29;19947;-74
2022/05/03 09:33:15;;;;;;;;;;;;;;;19.81;94.00;98292.63;4876960;29;20369;-74
2022/05/03 09:35:43;;;;;;;;;;;;;;;20.03;97.13;98278.44;4878956;29;19954;-74
2022/05/03 09:38:10;;;;;;;;;;;;;;;20.01;87.48;98284.59;4880840;29;19950;-74
2022/05/03 09:40:41;;;;;;;;;;;;;;;19.80;100.00;98287.44;4874137;29;19965;-74
2022/05/03 09:43:09;;;;;;;;;;;;;;;20.10;100.00;98284.66;4870611;29;19949;-74
2022/05/03 09:45:36;;;;;;;;;;;;;;;20.09;96.29;98280.25;4868397;29;19973;-74
2022/05/03 09:48:04;;;;;;;;;;;;;;;20.03;100.00;98281.28;4872805;29;19955;-74
2022/05/03 09:50:45;;;;;;;;;;;;;;;20.00;100.00;98277.31;4871112;29;19950;-74
2022/05/03 09:53:17;;;;;;;;;;;;;;;20.22;90.00;98275.31;4862854;29;19958;-75
2022/05/03 09:55:48;;;;;;;;;;;;;;;20.16;94.81;98273.50;4867315;29;19949;-75
2022/05/03 09:58:16;;;;;;;;;;;;;;;20.21;96.37;98278.59;4868582;29;20254;-74
2022/05/03 10:00:46;;;;;;;;;;;;;;;20.23;92.58;98276.09;4865597;29;19971;-75
2022/05/03 10:03:14;;;;;;;;;;;;;;;20.43;97.29;98270.09;4871274;29;19995;-74
2022/05/03 10:05:42;;;;;;;;;;;;;;;20.38;100.00;98270.69;4869902;29;19957;-74
2022/05/03 10:08:11;;;;;;;;;;;;;;;20.37;97.67;98275.56;4875677;29;19965;-75
2022/05/03 10:10:44;;;;;;;;;;;;;;;20.57;100.00;98278.03;4868159;29;19951;-75
2022/05/03 10:13:14;;;;;;;;;;;;;;;20.50;99.24;98266.97;4870325;29;19950;-75
2022/05/03 10:21:30;;;;;;;;;;;;;;;20.47;100.00;98259.41;4868483;29;20234;-74
2022/05/03 10:24:01;;;;;;;;;;;;;;;20.37;91.56;98263.44;4882742;29;19953;-75
2022/05/03 10:26:52;;;;;;;;;;;;;;;20.17;89.39;98258.06;4881463;29;19954;-74
2022/05/03 10:29:21;;;;;;;;;;;;;;;20.24;92.34;98261.47;4889200;29;19962;-74
2022/05/03 10:31:52;;;;;;;;;;;;;;;20.12;93.06;98255.81;4903391;29;19953;-74
2022/05/03 10:34:38;;;;;;;;;;;;;;;20.18;97.52;98251.91;4888386;29;19959;-74
2022/05/03 10:37:05;;;;;;;;;;;;;;;20.06;95.20;98240.63;4883407;29;19951;-74
2022/05/03 10:39:33;;;;;;;;;;;;;;;20.31;100.00;98249.03;4883741;29;19951;-75
2022/05/03 10:42:02;;;;;;;;;;;;;;;20.15;97.50;98249.19;4883588;29;19961;-74
2022/05/03 10:44:39;;;;;;;;;;;;;;;20.20;93.87;98242.91;4876034;29;19954;-74
2022/05/03 10:47:08;;;;;;;;;;;;;;;19.93;89.21;98242.75;4866372;29;19952;-75
2022/05/03 10:49:56;;;;;;;;;;;;;;;20.05;98.80;98231.31;4881808;29;19977;-75
2022/05/03 10:52:23;;;;;;;;;;;;;;;20.16;99.79;98233.75;4882296;29;20143;-75
2022/05/03 10:55:09;;;;;;;;;;;;;;;20.06;95.04;98226.44;4884734;29;19948;-75
2022/05/03 10:57:55;;;;;;;;;;;;;;;20.15;95.44;98226.50;4884541;29;20199;-75
2022/05/03 11:00:41;;;;;;;;;;;;;;;19.92;98.45;98224.13;4880287;29;20393;-75
2022/05/03 11:03:21;;;;;;;;;;;;;;;20.17;100.00;98218.31;4876400;29;19957;-75
2022/05/03 11:06:06;;;;;;;;;;;;;;;20.16;97.95;98226.03;4883213;29;19953;-75
2022/05/03 11:08:35;;;;;;;;;;;;;;;20.43;100.00;98219.75;4865172;29;19960;-74
2022/05/03 11:11:02;;;;;;;;;;;;;;;20.41;93.05;98221.47;4868598;29;19957;-74
2022/05/03 11:13:39;;;;;;;;;;;;;;;20.38;100.00;98211.03;4883783;29;19952;-74
2022/05/03 11:16:20;;;;;;;;;;;;;;;20.27;96.27;98211.47;4884099;29;19952;-75
2022/05/03 11:18:47;;;;;;;;;;;;;;;20.43;100.00;98210.44;4883998;29;20368;-74
2022/05/03 11:21:16;;;;;;;;;;;;;;;20.43;95.91;98210.44;4883812;29;20283;-75
2022/05/03 11:23:54;;;;;;;;;;;;;;;20.42;98.37;98201.13;4883356;29;19957;-74
2022/05/03 11:26:23;;;;;;;;;;;;;;;20.38;90.57;98213.88;4883538;29;19953;-75
2022/05/03 11:28:51;;;;;;;;;;;;;;;20.19;90.85;98207.28;4881864;29;19949;-75
2022/05/03 11:31:22;;;;;;;;;;;;;;;20.15;88.50;98200.94;4872868;29;19949;-74
2022/05/03 11:33:55;;;;;;;;;;;;;;;20.17;100.00;98202.06;4883205;29;19955;-74
2022/05/03 11:36:23;;;;;;;;;;;;;;;20.22;96.27;98195.00;4880840;29;19982;-75
2022/05/03 11:38:51;;;;;;;;;;;;;;;20.14;91.69;98196.53;4883631;29;19960;-76
2022/05/03 11:41:25;;;;;;;;;;;;;;;20.27;86.81;98198.03;4883428;29;19973;-75
2022/05/03 11:43:53;;;;;;;;;;;;;;;20.24;97.94;98186.84;4882858;29;19981;-75
2022/05/03 11:46:23;;;;;;;;;;;;;;;20.20;88.83;98189.78;4883300;29;19946;-75
2022/05/03 11:48:59;;;;;;;;;;;;;;;20.22;87.49;98181.59;4883633;29;20338;-75
2022/05/03 11:57:13;;;;;;;;;;;;;;;20.33;84.75;98177.56;4883757;29;19954;-74
2022/05/03 11:59:43;;;;;;;;;;;;;;;20.39;87.50;98167.19;4883580;29;20382;-74
2022/05/03 12:02:18;;;;;;;;;;;;;;;20.61;95.66;98170.75;4866163;29;19974;-73
2022/05/03 12:05:02;;;;;;;;;;;;;;;20.64;84.80;98181.19;4883634;29;19960;-74
2022/05/03 12:07:39;;;;;;;;;;;;;;;20.54;84.54;98171.81;4883376;29;19964;-73
2022/05/03 12:10:26;;;;;;;;;;;;;;;20.57;84.95;98170.09;4880597;29;19949;-77
2022/05/03 12:13:08;;;;;;;;;;;;;;;20.43;80.67;98173.50;4882471;29;19958;-77
2022/05/03 12:15:42;;;;;;;;;;;;;;;20.47;84.25;98157.91;4883088;29;19969;-77
2022/05/03 12:18:18;;;;;;;;;;;;;;;20.59;86.97;98161.91;4883112;29;19957;-75
2022/05/03 12:20:48;;;;;;;;;;;;;;;20.56;86.43;98162.84;4884306;29;19975;-75
2022/05/03 12:23:17;;;;;;;;;;;;;;;20.82;83.01;98164.19;4882071;29;19953;-76
2022/05/03 12:25:46;;;;;;;;;;;;;;;20.85;79.53;98163.25;4882713;29;19985;-76
2022/05/03 12:28:14;;;;;;;;;;;;;;;20.89;92.89;98167.50;4882981;29;19958;-75
2022/05/03 12:30:41;;;;;;;;;;;;;;;20.61;83.88;98168.72;4873298;29;19953;-75
2022/05/03 12:33:12;;;;;;;;;;;;;;;20.44;84.84;98160.91;4881398;29;20381;-75
2022/05/03 12:39:20;;;;;;;;;;;;;;;20.51;83.99;98158.56;4883232;29;19950;-74
2022/05/03 12:42:01;;;;;;;;;;;;;;;20.49;84.40;98157.44;4882845;29;19976;-74
2022/05/03 12:44:30;;;;;;;;;;;;;;;20.40;81.96;98157.41;4882905;29;20018;-74
2022/05/03 12:47:01;;;;;;;;;;;;;;;20.45;82.27;98151.09;4882230;29;19953;-74
2022/05/03 12:49:28;;;;;;;;;;;;;;;20.34;84.44;98154.41;4881172;29;19949;-74
2022/05/03 12:51:55;;;;;;;;;;;;;;;20.41;87.54;98156.16;4881969;29;19961;-74
2022/05/03 12:54:24;;;;;;;;;;;;;;;20.26;80.83;98155.94;4882104;29;19962;-74
2022/05/03 12:59:37;;;;;;;;;;;;;;;20.17;79.50;98145.28;4882179;29;19954;-74
2022/05/03 13:02:05;;;;;;;;;;;;;;;20.26;80.79;98153.09;4881705;29;20204;-74
2022/05/03 13:04:32;;;;;;;;;;;;;;;20.31;83.64;98158.16;4880872;29;20353;-74
2022/05/03 13:07:00;;;;;;;;;;;;;;;20.24;82.03;98153.56;4869499;29;19960;-74
2022/05/03 13:09:30;;;;;;;;;;;;;;;20.16;83.70;98157.09;4862708;29;19954;-75
2022/05/03 13:11:58;;;;;;;;;;;;;;;20.14;80.55;98154.75;4862775;29;19952;-74
2022/05/03 13:14:26;;;;;;;;;;;;;;;20.19;89.19;98147.66;4863181;29;19957;-74
2022/05/03 13:16:54;;;;;;;;;;;;;;;20.15;78.68;98144.94;4862874;29;19967;-74
2022/05/03 13:19:21;;;;;;;;;;;;;;;20.20;85.73;98152.06;4872227;29;19951;-74
2022/05/03 13:21:48;;;;;;;;;;;;;;;20.08;84.05;98144.44;4877164;29;19992;-74
2022/05/03 13:24:16;;;;;;;;;;;;;;;20.10;81.05;98145.56;4878385;29;19971;-73
2022/05/03 13:26:43;;;;;;;;;;;;;;;19.88;81.95;98147.63;4880694;29;19950;-74
2022/05/03 13:29:12;;;;;;;;;;;;;;;19.83;81.41;98141.78;4861076;29;19959;-74
2022/05/03 13:31:39;;;;;;;;;;;;;;;19.80;80.91;98137.84;4877545;29;19953;-74
2022/05/03 13:34:07;;;;;;;;;;;;;;;19.93;80.68;98130.00;4881464;29;19959;-74
2022/05/03 13:42:07;;;;;;;;;;;;;;;19.83;82.85;98136.88;4882178;29;19973;-73
2022/05/03 13:44:35;;;;;;;;;;;;;;;19.77;85.20;98141.59;4880360;29;19988;-73
2022/05/03 13:47:03;;;;;;;;;;;;;;;19.69;86.07;98148.78;4881239;29;19949;-73
2022/05/03 13:49:31;;;;;;;;;;;;;;;19.73;83.92;98148.66;4880741;29;19963;-73
2022/05/03 13:51:58;;;;;;;;;;;;;;;19.73;86.71;98146.63;4880408;29;19961;-73
2022/05/03 13:54:26;;;;;;;;;;;;;;;19.78;86.14;98148.84;4880231;29;20043;-73
2022/05/03 13:56:53;;;;;;;;;;;;;;;19.80;86.26;98145.53;4880410;29;19963;-73
2022/05/03 13:59:21;;;;;;;;;;;;;;;19.84;86.95;98157.53;4880816;29;19960;-73
2022/05/03 14:01:48;;;;;;;;;;;;;;;19.85;89.20;98145.75;4879898;29;19967;-73
2022/05/03 14:04:15;;;;;;;;;;;;;;;19.87;90.19;98143.22;4879981;29;20043;-73
2022/05/03 14:06:43;;;;;;;;;;;;;;;19.82;89.22;98146.66;4880692;29;19952;-73
2022/05/03 14:09:10;;;;;;;;;;;;;;;19.92;84.17;98151.16;4877948;29;19955;-73
2022/05/03 14:11:37;;;;;;;;;;;;;;;19.77;84.85;98150.09;4878416;29;20299;-73
2022/05/03 14:14:04;;;;;;;;;;;;;;;19.73;85.64;98152.28;4880826;29;19956;-73
2022/05/03 14:16:32;;;;;;;;;;;;;;;19.80;85.14;98157.69;4880712;29;19954;-73
2022/05/03 14:18:59;;;;;;;;;;;;;;;19.74;85.23;98155.91;4884452;29;19957;-74
2022/05/03 14:21:27;;;;;;;;;;;;;;;19.71;84.21;98157.59;4880720;29;19978;-74
2022/05/03 14:23:57;;;;;;;;;;;;;;;19.81;82.68;98156.41;4871482;29;19961;-74
2022/05/03 14:26:26;;;;;;;;;;;;;;;19.75;80.11;98157.50;4862009;29;19963;-74
2022/05/03 14:28:54;;;;;;;;;;;;;;;19.75;82.47;98152.63;4863712;29;19958;-74
2022/05/03 14:31:25;;;;;;;;;;;;;;;19.76;86.70;98157.03;4882504;29;19950;-74
2022/05/03 14:33:53;;;;;;;;;;;;;;;19.77;87.86;98167.13;4879552;29;20377;-73
2022/05/03 14:36:24;;;;;;;;;;;;;;;19.79;89.33;98164.59;4879599;29;19962;-73
2022/05/03 14:38:51;;;;;;;;;;;;;;;19.77;94.03;98169.97;4881135;29;19951;-72
2022/05/03 14:41:18;;;;;;;;;;;;;;;19.73;93.85;98169.31;4879077;29;19954;-73
2022/05/03 14:43:46;;;;;;;;;;;;;;;19.71;95.00;98173.88;4880393;29;19953;-72
2022/05/03 14:46:13;;;;;;;;;;;;;;;19.66;93.59;98175.22;4881284;29;19955;-73
2022/05/03 14:48:41;;;;;;;;;;;;;;;19.64;95.39;98172.88;4876557;29;20244;-73
2022/05/03 14:51:08;;;;;;;;;;;;;;;19.31;88.64;98182.19;4877573;29;19982;-73
2022/05/03 14:53:35;;;;;;;;;;;;;;;19.05;92.29;98172.16;4878856;29;19959;-73
2022/05/03 15:04:23;;;;;;;;;;;;;;;18.30;96.23;98187.97;4874837;29;19964;-73
2022/05/03 15:06:50;;;;;;;;;;;;;;;18.10;97.80;98181.69;4880594;29;20242;-73
2022/05/03 15:09:17;;;;;;;;;;;;;;;18.05;100.00;98187.91;4871316;29;19959;-73
2022/05/03 15:11:44;;;;;;;;;;;;;;;17.99;100.00;98199.03;4874552;29;19960;-73
2022/05/03 15:14:12;;;;;;;;;;;;;;;17.95;100.00;98194.72;4883153;29;19950;-72
2022/05/03 15:16:39;;;;;;;;;;;;;;;17.74;100.00;98193.28;4880225;29;20426;-73
2022/05/03 15:19:07;;;;;;;;;;;;;;;17.67;100.00;98197.13;4878996;29;19976;-73
2022/05/03 15:21:34;;;;;;;;;;;;;;;17.59;100.00;98190.09;4872626;29;20147;-73
2022/05/03 15:26:48;;;;;;;;;;;;;;;17.52;100.00;98200.81;4879705;29;19950;-73
2022/05/03 15:29:16;;;;;;;;;;;;;;;17.47;100.00;98198.50;4881063;29;20212;-73
2022/05/03 15:31:43;;;;;;;;;;;;;;;17.41;100.00;98189.75;4877871;29;20763;-72
2022/05/03 15:34:11;;;;;;;;;;;;;;;17.39;100.00;98182.94;4870623;29;19977;-73
2022/05/03 15:36:38;;;;;;;;;;;;;;;17.29;100.00;98186.91;4882107;29;19950;-73
2022/05/03 15:39:05;;;;;;;;;;;;;;;17.34;100.00;98189.94;4875601;29;19952;-72
2022/05/03 15:41:33;;;;;;;;;;;;;;;17.36;100.00;98184.63;4877969;29;19959;-72
2022/05/03 15:44:00;;;;;;;;;;;;;;;17.35;100.00;98185.09;4882156;29;19972;-73
2022/05/03 15:46:28;;;;;;;;;;;;;;;17.39;100.00;98185.78;4883539;29;19953;-73
2022/05/03 15:48:55;;;;;;;;;;;;;;;17.37;100.00;98185.44;4881421;29;19957;-72
2022/05/03 15:51:25;;;;;;;;;;;;;;;17.37;100.00;98177.75;4874323;29;19949;-72
2022/05/03 15:53:52;;;;;;;;;;;;;;;17.36;100.00;98189.53;4877956;29;19957;-73
2022/05/03 15:56:19;;;;;;;;;;;;;;;17.36;100.00;98181.81;4870815;29;20220;-73
2022/05/03 15:58:47;;;;;;;;;;;;;;;17.34;100.00;98181.47;4877544;29;19951;-73
2022/05/03 16:01:14;;;;;;;;;;;;;;;17.27;100.00;98187.31;4879964;29;19960;-73
2022/05/03 16:03:41;;;;;;;;;;;;;;;17.27;100.00;98183.69;4875135;29;19971;-73
2022/05/03 16:06:09;;;;;;;;;;;;;;;17.31;100.00;98185.19;4873743;29;19952;-73
2022/05/03 16:08:36;;;;;;;;;;;;;;;17.30;100.00;98179.97;4882431;29;19946;-73
2022/05/03 16:11:04;;;;;;;;;;;;;;;17.31;100.00;98181.59;4879968;29;19957;-73
2022/05/03 16:13:31;;;;;;;;;;;;;;;17.27;100.00;98178.84;4874652;29;19966;-73
2022/05/03 16:15:59;;;;;;;;;;;;;;;17.30;100.00;98186.44;4881099;29;19957;-73
2022/05/03 16:18:27;;;;;;;;;;;;;;;17.31;100.00;98182.34;4876245;29;19962;-73
2022/05/03 16:20:54;;;;;;;;;;;;;;;17.33;100.00;98187.59;4879524;29;20352;-73
2022/05/03 16:23:22;;;;;;;;;;;;;;;17.34;100.00;98186.31;4880972;29;19973;-73
2022/05/03 16:25:50;;;;;;;;;;;;;;;17.30;100.00;98186.44;4886421;29;19980;-73
2022/05/03 16:28:17;;;;;;;;;;;;;;;17.30;100.00;98179.97;4879034;29;19954;-73
2022/05/03 16:30:44;;;;;;;;;;;;;;;17.27;100.00;98175.22;4881588;29;19956;-73
2022/05/03 16:33:12;;;;;;;;;;;;;;;17.25;100.00;98177.69;4883137;29;19954;-73
2022/05/03 16:35:39;;;;;;;;;;;;;;;17.21;100.00;98179.84;4880539;29;19962;-73
2022/05/03 16:43:38;;;;;;;;;;;;;;;17.06;100.00;98199.19;4883277;29;20231;-73
2022/05/03 16:46:06;;;;;;;;;;;;;;;17.02;100.00;98192.84;4882910;29;19959;-73
2022/05/03 16:48:33;;;;;;;;;;;;;;;16.99;100.00;98191.69;4882480;29;19949;-73
2022/05/03 16:51:06;;;;;;;;;;;;;;;16.95;100.00;98191.00;4883026;29;19955;-73
2022/05/03 16:53:34;;;;;;;;;;;;;;;16.92;100.00;98193.94;4882271;29;19955;-73
2022/05/03 16:56:01;;;;;;;;;;;;;;;16.89;100.00;98186.34;4882077;29;19950;-73
2022/05/03 16:58:29;;;;;;;;;;;;;;;16.82;100.00;98197.81;4882417;29;19954;-73
2022/05/03 17:00:56;;;;;;;;;;;;;;;16.80;100.00;98200.28;4882166;29;19952;-73
2022/05/03 17:03:23;;;;;;;;;;;;;;;16.76;100.00;98194.72;4881776;29;19977;-73
2022/05/03 17:05:50;;;;;;;;;;;;;;;16.70;100.00;98201.34;4882327;29;20255;-73
2022/05/03 17:08:18;;;;;;;;;;;;;;;16.70;100.00;98195.69;4882028;29;20348;-73
2022/05/03 17:10:45;;;;;;;;;;;;;;;16.65;100.00;98202.66;4882066;29;19953;-73
2022/05/03 17:13:13;;;;;;;;;;;;;;;16.61;100.00;98196.31;4880556;29;19957;-73
2022/05/03 17:15:41;;;;;;;;;;;;;;;16.58;100.00;98211.28;4881058;29;19957;-73
2022/05/03 17:18:09;;;;;;;;;;;;;;;16.55;100.00;98203.72;4879938;29;19958;-73
2022/05/03 17:20:36;;;;;;;;;;;;;;;16.53;100.00;98206.16;4880228;29;20370;-73
2022/05/03 17:23:04;;;;;;;;;;;;;;;16.49;100.00;98215.94;4880840;29;19968;-73
2022/05/03 17:25:31;;;;;;;;;;;;;;;16.47;100.00;98213.56;4880638;29;19981;-73
2022/05/03 17:27:59;;;;;;;;;;;;;;;16.46;100.00;98214.00;4881753;29;20249;-73
2022/05/03 17:30:26;;;;;;;;;;;;;;;16.43;100.00;98218.50;4881922;29;19980;-73
2022/05/03 17:32:54;;;;;;;;;;;;;;;16.39;100.00;98218.56;4879461;29;19963;-73
2022/05/03 17:35:22;;;;;;;;;;;;;;;16.32;100.00;98220.75;4882562;29;19953;-73
2022/05/03 17:37:49;;;;;;;;;;;;;;;16.30;100.00;98223.22;4881954;29;19954;-73
2022/05/03 17:40:19;;;;;;;;;;;;;;;16.22;100.00;98233.88;4882358;29;19984;-73
2022/05/03 17:42:48;;;;;;;;;;;;;;;16.26;100.00;98228.16;4881539;29;19953;-73
2022/05/03 17:45:15;;;;;;;;;;;;;;;16.21;100.00;98229.47;4873790;29;19956;-73
2022/05/03 17:47:43;;;;;;;;;;;;;;;16.17;100.00;98231.56;4881608;29;19949;-73
2022/05/03 17:50:10;;;;;;;;;;;;;;;16.10;100.00;98226.09;4882253;29;20334;-73
2022/05/03 17:55:23;;;;;;;;;;;;;;;15.91;100.00;98220.47;4879995;29;19950;-73
2022/05/03 17:57:50;;;;;;;;;;;;;;;15.77;100.00;98225.16;4879164;29;19980;-73
2022/05/03 18:00:18;;;;;;;;;;;;;;;15.71;100.00;98226.13;4882074;29;19964;-73
2022/05/03 18:02:46;;;;;;;;;;;;;;;15.64;100.00;98229.09;4875510;29;19952;-73
2022/05/03 18:05:15;;;;;;;;;;;;;;;15.63;100.00;98230.31;4865431;29;20630;-73
2022/05/03 18:07:42;;;;;;;;;;;;;;;15.53;100.00;98234.94;4878977;29;19956;-73
2022/05/03 18:10:09;;;;;;;;;;;;;;;15.37;100.00;98232.00;4881312;29;19949;-73
2022/05/03 18:12:36;;;;;;;;;;;;;;;15.28;100.00;98228.16;4878747;29;20399;-73
2022/05/03 18:15:04;;;;;;;;;;;;;;;15.21;100.00;98225.47;4881743;29;19952;-73